createdAt,value
2019-05-12T00:00:19.038Z,996.86
2019-05-12T00:01:19.262Z,996.87
2019-05-12T00:02:19.483Z,996.89
2019-05-12T00:03:19.705Z,996.90
2019-05-12T00:04:19.930Z,996.87
2019-05-12T00:05:20.179Z,996.86
2019-05-12T00:06:20.373Z,996.89
2019-05-12T00:07:20.609Z,996.90
2019-05-12T00:08:20.823Z,996.99
2019-05-12T00:09:21.036Z,996.99
2019-05-12T00:10:21.256Z,996.98
2019-05-12T00:11:21.491Z,997.05
2019-05-12T00:12:21.707Z,997.02
2019-05-12T00:13:21.931Z,997.04
2019-05-12T00:14:22.155Z,997.04
2019-05-12T00:15:22.374Z,997.10
2019-05-12T00:16:22.611Z,997.11
2019-05-12T00:17:22.822Z,997.14
2019-05-12T00:18:23.042Z,997.13
2019-05-12T00:19:23.266Z,997.17
2019-05-12T00:20:23.484Z,997.14
2019-05-12T00:21:23.707Z,997.16
2019-05-12T00:22:23.928Z,997.19
2019-05-12T00:23:28.091Z,997.21
2019-05-12T00:24:24.369Z,997.23
2019-05-12T00:25:24.590Z,997.21
2019-05-12T00:26:24.815Z,997.24
2019-05-12T00:27:25.065Z,997.27
2019-05-12T00:28:25.260Z,997.28
2019-05-12T00:29:25.489Z,997.31
2019-05-12T00:30:27.669Z,997.29
2019-05-12T00:31:27.999Z,997.29
2019-05-12T00:32:28.100Z,997.29
2019-05-12T00:33:28.186Z,997.33
2019-05-12T00:34:28.684Z,997.32
2019-05-12T00:35:28.491Z,997.38
2019-05-12T00:36:29.060Z,997.38
2019-05-12T00:37:28.866Z,997.34
2019-05-12T00:38:27.818Z,997.38
2019-05-12T00:39:27.965Z,997.41
2019-05-12T00:40:28.114Z,997.46
2019-05-12T00:41:28.441Z,997.47
2019-05-12T00:42:28.771Z,997.48
2019-05-12T00:43:28.616Z,997.50
2019-05-12T00:44:28.838Z,997.50
2019-05-12T00:45:29.515Z,997.53
2019-05-12T00:46:29.320Z,997.51
2019-05-12T00:47:29.515Z,997.53
2019-05-12T00:48:29.742Z,997.55
2019-05-12T00:49:29.962Z,997.54
2019-05-12T00:50:30.186Z,997.58
2019-05-12T00:51:30.413Z,997.59
2019-05-12T00:52:30.640Z,997.60
2019-05-12T00:53:39.926Z,997.64
2019-05-12T00:54:31.077Z,997.63
2019-05-12T00:55:31.299Z,997.63
2019-05-12T00:56:31.524Z,997.65
2019-05-12T00:57:31.744Z,997.69
2019-05-12T00:58:31.969Z,997.69
2019-05-12T00:59:32.190Z,997.73
2019-05-12T01:00:32.415Z,997.71
2019-05-12T01:01:32.639Z,997.71
2019-05-12T01:02:32.859Z,997.69
2019-05-12T01:03:33.079Z,997.72
2019-05-12T01:04:33.305Z,997.74
2019-05-12T01:05:33.528Z,997.77
2019-05-12T01:06:33.752Z,997.83
2019-05-12T01:07:33.974Z,997.84
2019-05-12T01:08:34.199Z,997.87
2019-05-12T01:09:34.421Z,997.86
2019-05-12T01:10:34.643Z,997.90
2019-05-12T01:11:34.869Z,997.93
2019-05-12T01:12:35.095Z,997.91
2019-05-12T01:13:35.315Z,997.89
2019-05-12T01:14:35.537Z,997.90
2019-05-12T01:15:37.820Z,997.90
2019-05-12T01:16:38.334Z,997.91
2019-05-12T01:17:40.062Z,997.92
2019-05-12T01:18:38.399Z,997.94
2019-05-12T01:19:37.425Z,997.92
2019-05-12T01:20:38.893Z,997.93
2019-05-12T01:21:37.678Z,997.99
2019-05-12T01:22:38.227Z,998.00
2019-05-12T01:23:53.278Z,998.04
2019-05-12T01:24:38.425Z,997.98
2019-05-12T01:25:39.549Z,998.02
2019-05-12T01:26:38.785Z,998.07
2019-05-12T01:27:38.439Z,998.10
2019-05-12T01:28:38.663Z,998.11
2019-05-12T01:29:38.886Z,998.12
2019-05-12T01:30:39.567Z,998.14
2019-05-12T01:31:39.334Z,998.13
2019-05-12T01:32:39.564Z,998.16
2019-05-12T01:33:39.781Z,998.12
2019-05-12T01:34:40.002Z,998.14
2019-05-12T01:35:40.226Z,998.21
2019-05-12T01:36:40.450Z,998.21
2019-05-12T01:37:40.672Z,998.19
2019-05-12T01:38:40.901Z,998.17
2019-05-12T01:39:41.121Z,998.16
2019-05-12T01:40:41.344Z,998.16
2019-05-12T01:41:41.571Z,998.18
2019-05-12T01:42:41.791Z,998.19
2019-05-12T01:43:42.015Z,998.23
2019-05-12T01:44:42.239Z,998.23
2019-05-12T01:45:42.462Z,998.23
2019-05-12T01:46:42.687Z,998.25
2019-05-12T01:47:42.908Z,998.26
2019-05-12T01:48:43.131Z,998.27
2019-05-12T01:49:43.353Z,998.25
2019-05-12T01:50:43.577Z,998.26
2019-05-12T01:51:43.801Z,998.30
2019-05-12T01:52:44.025Z,998.32
2019-05-12T01:53:44.246Z,998.36
2019-05-12T01:54:44.473Z,998.34
2019-05-12T01:55:44.693Z,998.33
2019-05-12T01:56:44.918Z,998.37
2019-05-12T01:57:45.138Z,998.40
2019-05-12T01:58:45.364Z,998.40
2019-05-12T01:59:45.586Z,998.45
2019-05-12T02:00:48.102Z,998.45
2019-05-12T02:01:46.033Z,998.42
2019-05-12T02:02:48.098Z,998.43
2019-05-12T02:03:48.071Z,998.48
2019-05-12T02:04:48.361Z,998.45
2019-05-12T02:05:48.544Z,998.44
2019-05-12T02:06:48.557Z,998.48
2019-05-12T02:07:48.022Z,998.48
2019-05-12T02:08:47.852Z,998.50
2019-05-12T02:09:48.109Z,998.60
2019-05-12T02:10:48.164Z,998.56
2019-05-12T02:11:48.433Z,998.61
2019-05-12T02:12:49.251Z,998.60
2019-05-12T02:13:48.842Z,998.63
2019-05-12T02:14:48.928Z,998.64
2019-05-12T02:15:49.152Z,998.62
2019-05-12T02:16:49.371Z,998.64
2019-05-12T02:17:49.596Z,998.66
2019-05-12T02:18:49.818Z,998.63
2019-05-12T02:19:50.047Z,998.66
2019-05-12T02:20:50.266Z,998.72
2019-05-12T02:21:50.488Z,998.71
2019-05-12T02:22:50.718Z,998.71
2019-05-12T02:23:50.931Z,998.72
2019-05-12T02:24:51.155Z,998.75
2019-05-12T02:25:51.378Z,998.76
2019-05-12T02:26:51.601Z,998.85
2019-05-12T02:27:51.824Z,998.81
2019-05-12T02:28:52.049Z,998.79
2019-05-12T02:29:52.273Z,998.83
2019-05-12T02:30:52.498Z,998.87
2019-05-12T02:31:52.718Z,998.94
2019-05-12T02:32:57.567Z,998.93
2019-05-12T02:33:55.071Z,998.92
2019-05-12T02:34:54.788Z,998.94
2019-05-12T02:35:54.820Z,999.01
2019-05-12T02:36:55.472Z,999.02
2019-05-12T02:37:55.087Z,999.07
2019-05-12T02:38:55.960Z,999.13
2019-05-12T02:39:55.558Z,999.14
2019-05-12T02:40:55.446Z,999.17
2019-05-12T02:41:54.946Z,999.15
2019-05-12T02:42:55.371Z,999.16
2019-05-12T02:43:55.638Z,999.17
2019-05-12T02:44:55.621Z,999.15
2019-05-12T02:45:55.842Z,999.15
2019-05-12T02:46:56.064Z,999.18
2019-05-12T02:47:56.290Z,999.11
2019-05-12T02:48:56.517Z,999.13
2019-05-12T02:49:56.736Z,999.13
2019-05-12T02:50:56.959Z,999.16
2019-05-12T02:51:57.181Z,999.18
2019-05-12T02:52:57.407Z,999.21
2019-05-12T02:53:57.628Z,999.23
2019-05-12T02:55:00.737Z,999.25
2019-05-12T02:55:58.072Z,999.25
2019-05-12T02:56:58.297Z,999.27
2019-05-12T02:57:58.527Z,999.31
2019-05-12T02:58:58.744Z,999.36
2019-05-12T02:59:58.968Z,999.37
2019-05-12T03:00:59.190Z,999.36
2019-05-12T03:01:59.414Z,999.38
2019-05-12T03:02:59.638Z,999.36
2019-05-12T03:03:59.862Z,999.40
2019-05-12T03:05:00.086Z,999.46
2019-05-12T03:06:00.304Z,999.41
2019-05-12T03:07:05.469Z,999.45
2019-05-12T03:08:00.755Z,999.42
2019-05-12T03:09:00.976Z,999.48
2019-05-12T03:10:04.608Z,999.48
2019-05-12T03:11:01.421Z,999.46
2019-05-12T03:12:01.647Z,999.47
2019-05-12T03:13:04.304Z,999.48
2019-05-12T03:14:04.020Z,999.57
2019-05-12T03:15:05.097Z,999.54
2019-05-12T03:16:04.905Z,999.56
2019-05-12T03:17:04.728Z,999.56
2019-05-12T03:18:06.243Z,999.60
2019-05-12T03:19:04.997Z,999.52
2019-05-12T03:20:04.988Z,999.56
2019-05-12T03:21:05.630Z,999.63
2019-05-12T03:22:05.062Z,999.62
2019-05-12T03:23:05.832Z,999.62
2019-05-12T03:24:06.087Z,999.63
2019-05-12T03:25:15.365Z,999.64
2019-05-12T03:26:05.361Z,999.67
2019-05-12T03:27:04.993Z,999.68
2019-05-12T03:28:08.919Z,999.66
2019-05-12T03:29:06.084Z,999.71
2019-05-12T03:30:12.040Z,999.75
2019-05-12T03:31:07.681Z,999.79
2019-05-12T03:32:08.165Z,999.78
2019-05-12T03:33:09.355Z,999.80
2019-05-12T03:34:09.385Z,999.84
2019-05-12T03:35:08.930Z,999.85
2019-05-12T03:36:09.670Z,999.85
2019-05-12T03:37:08.271Z,999.88
2019-05-12T03:38:07.472Z,999.90
2019-05-12T03:39:07.672Z,999.91
2019-05-12T03:40:07.917Z,999.96
2019-05-12T03:41:08.128Z,999.96
2019-05-12T03:42:08.349Z,999.95
2019-05-12T03:43:08.578Z,999.95
2019-05-12T03:44:08.792Z,1000.01
2019-05-12T03:45:09.011Z,1000.06
2019-05-12T03:46:09.231Z,1000.02
2019-05-12T03:47:09.454Z,1000.03
2019-05-12T03:48:09.678Z,1000.06
2019-05-12T03:49:09.902Z,1000.08
2019-05-12T03:50:10.125Z,1000.08
2019-05-12T03:51:10.349Z,1000.18
2019-05-12T03:52:10.569Z,1000.17
2019-05-12T03:53:11.242Z,1000.09
2019-05-12T03:54:11.018Z,1000.17
2019-05-12T03:55:29.735Z,1000.23
2019-05-12T03:56:14.855Z,1000.24
2019-05-12T03:57:14.759Z,1000.25
2019-05-12T03:58:14.335Z,1000.25
2019-05-12T03:59:14.693Z,1000.24
2019-05-12T04:00:15.641Z,1000.26
2019-05-12T04:01:14.987Z,1000.28
2019-05-12T04:02:15.130Z,1000.31
2019-05-12T04:03:15.329Z,1000.29
2019-05-12T04:04:15.210Z,1000.30
2019-05-12T04:05:15.449Z,1000.26
2019-05-12T04:06:15.421Z,1000.31
2019-05-12T04:07:15.254Z,1000.31
2019-05-12T04:08:15.863Z,1000.35
2019-05-12T04:09:15.478Z,1000.36
2019-05-12T04:10:15.656Z,1000.37
2019-05-12T04:11:14.896Z,1000.40
2019-05-12T04:12:15.099Z,1000.39
2019-05-12T04:13:15.496Z,1000.44
2019-05-12T04:14:15.475Z,1000.50
2019-05-12T04:15:15.699Z,1000.50
2019-05-12T04:16:16.442Z,1000.46
2019-05-12T04:17:16.148Z,1000.47
2019-05-12T04:18:16.717Z,1000.51
2019-05-12T04:19:16.593Z,1000.56
2019-05-12T04:20:16.822Z,1000.49
2019-05-12T04:21:17.038Z,1000.54
2019-05-12T04:22:17.262Z,1000.52
2019-05-12T04:23:17.484Z,1000.50
2019-05-12T04:24:17.706Z,1000.54
2019-05-12T04:25:17.942Z,1000.60
2019-05-12T04:26:18.157Z,1000.55
2019-05-12T04:27:18.379Z,1000.63
2019-05-12T04:28:18.603Z,1000.60
2019-05-12T04:29:18.826Z,1000.60
2019-05-12T04:30:19.054Z,1000.69
2019-05-12T04:31:19.272Z,1000.66
2019-05-12T04:32:19.496Z,1000.70
2019-05-12T04:33:19.720Z,1000.68
2019-05-12T04:34:19.948Z,1000.74
2019-05-12T04:35:20.198Z,1000.74
2019-05-12T04:36:20.389Z,1000.79
2019-05-12T04:37:20.611Z,1000.71
2019-05-12T04:38:20.837Z,1000.77
2019-05-12T04:39:21.060Z,1000.79
2019-05-12T04:40:24.607Z,1000.80
2019-05-12T04:41:21.507Z,1000.80
2019-05-12T04:42:24.873Z,1000.85
2019-05-12T04:43:25.083Z,1000.87
2019-05-12T04:44:24.903Z,1000.86
2019-05-12T04:45:25.250Z,1000.91
2019-05-12T04:46:25.224Z,1000.91
2019-05-12T04:47:25.232Z,1000.96
2019-05-12T04:48:25.786Z,1001.01
2019-05-12T04:49:25.075Z,1001.03
2019-05-12T04:50:24.553Z,1001.04
2019-05-12T04:51:26.003Z,1001.06
2019-05-12T04:52:24.876Z,1001.08
2019-05-12T04:53:25.196Z,1001.11
2019-05-12T04:54:24.817Z,1001.17
2019-05-12T04:55:25.685Z,1001.14
2019-05-12T04:56:25.173Z,1001.22
2019-05-12T04:57:25.594Z,1001.17
2019-05-12T04:58:25.632Z,1001.17
2019-05-12T04:59:25.660Z,1001.22
2019-05-12T05:00:26.019Z,1001.24
2019-05-12T05:01:25.969Z,1001.21
2019-05-12T05:02:26.197Z,1001.18
2019-05-12T05:03:26.419Z,1001.24
2019-05-12T05:04:26.631Z,1001.27
2019-05-12T05:05:26.853Z,1001.32
2019-05-12T05:06:27.079Z,1001.32
2019-05-12T05:07:27.301Z,1001.33
2019-05-12T05:08:27.521Z,1001.36
2019-05-12T05:09:27.745Z,1001.37
2019-05-12T05:10:27.968Z,1001.36
2019-05-12T05:11:28.191Z,1001.46
2019-05-12T05:12:28.413Z,1001.44
2019-05-12T05:13:28.637Z,1001.43
2019-05-12T05:14:28.856Z,1001.46
2019-05-12T05:15:29.078Z,1001.49
2019-05-12T05:16:29.301Z,1001.53
2019-05-12T05:17:29.524Z,1001.55
2019-05-12T05:18:29.747Z,1001.56
2019-05-12T05:19:29.974Z,1001.62
2019-05-12T05:20:30.196Z,1001.65
2019-05-12T05:21:30.420Z,1001.65
2019-05-12T05:22:30.639Z,1001.74
2019-05-12T05:23:30.865Z,1001.69
2019-05-12T05:24:31.088Z,1001.71
2019-05-12T05:25:31.311Z,1001.79
2019-05-12T05:26:36.406Z,1001.80
2019-05-12T05:27:33.883Z,1001.80
2019-05-12T05:28:33.832Z,1001.85
2019-05-12T05:29:33.287Z,1001.87
2019-05-12T05:30:33.982Z,1001.89
2019-05-12T05:31:33.669Z,1001.89
2019-05-12T05:32:33.936Z,1001.87
2019-05-12T05:33:34.011Z,1002.00
2019-05-12T05:34:34.245Z,1001.87
2019-05-12T05:35:35.179Z,1001.97
2019-05-12T05:36:34.576Z,1002.04
2019-05-12T05:37:36.898Z,1002.02
2019-05-12T05:38:34.377Z,1002.03
2019-05-12T05:39:35.664Z,1002.03
2019-05-12T05:40:35.891Z,1002.07
2019-05-12T05:41:34.880Z,1002.09
2019-05-12T05:42:35.593Z,1002.12
2019-05-12T05:43:35.329Z,1002.18
2019-05-12T05:44:37.965Z,1002.17
2019-05-12T05:45:35.776Z,1002.17
2019-05-12T05:46:39.146Z,1002.20
2019-05-12T05:47:36.226Z,1002.28
2019-05-12T05:48:36.449Z,1002.30
2019-05-12T05:49:36.671Z,1002.30
2019-05-12T05:50:36.912Z,1002.27
2019-05-12T05:51:39.658Z,1002.30
2019-05-12T05:52:38.765Z,1002.31
2019-05-12T05:53:37.563Z,1002.42
2019-05-12T05:54:39.970Z,1002.35
2019-05-12T05:55:38.007Z,1002.30
2019-05-12T05:56:42.676Z,1002.39
2019-05-12T05:57:38.469Z,1002.38
2019-05-12T05:58:40.120Z,1002.35
2019-05-12T05:59:38.903Z,1002.38
2019-05-12T06:00:39.582Z,1002.40
2019-05-12T06:01:40.192Z,1002.41
2019-05-12T06:02:40.571Z,1002.47
2019-05-12T06:03:39.795Z,1002.44
2019-05-12T06:04:45.493Z,1002.40
2019-05-12T06:05:40.243Z,1002.49
2019-05-12T06:06:42.527Z,1002.56
2019-05-12T06:07:40.687Z,1002.56
2019-05-12T06:08:40.911Z,1002.57
2019-05-12T06:09:43.160Z,1002.58
2019-05-12T06:10:43.376Z,1002.65
2019-05-12T06:11:43.712Z,1002.68
2019-05-12T06:12:46.397Z,1002.73
2019-05-12T06:13:44.133Z,1002.81
2019-05-12T06:14:46.690Z,1002.75
2019-05-12T06:15:43.367Z,1002.83
2019-05-12T06:16:43.331Z,1002.90
2019-05-12T06:17:43.852Z,1002.85
2019-05-12T06:18:44.280Z,1003.05
2019-05-12T06:19:43.826Z,1002.93
2019-05-12T06:20:43.866Z,1002.93
2019-05-12T06:21:44.183Z,1002.98
2019-05-12T06:22:48.455Z,1002.91
2019-05-12T06:23:44.327Z,1003.01
2019-05-12T06:24:49.138Z,1002.96
2019-05-12T06:25:51.173Z,1002.91
2019-05-12T06:26:56.792Z,1002.93
2019-05-12T06:27:45.207Z,1002.91
2019-05-12T06:28:45.433Z,1002.95
2019-05-12T06:29:45.655Z,1003.02
2019-05-12T06:30:49.508Z,1003.07
2019-05-12T06:31:46.101Z,1003.08
2019-05-12T06:32:50.508Z,1003.05
2019-05-12T06:33:46.552Z,1003.08
2019-05-12T06:34:50.873Z,1003.15
2019-05-12T06:35:47.001Z,1003.16
2019-05-12T06:36:47.229Z,1003.18
2019-05-12T06:37:57.425Z,1003.17
2019-05-12T06:38:47.671Z,1003.18
2019-05-12T06:39:51.032Z,1003.19
2019-05-12T06:40:48.117Z,1003.21
2019-05-12T06:41:48.343Z,1003.16
2019-05-12T06:42:53.117Z,1003.22
2019-05-12T06:43:48.792Z,1003.22
2019-05-12T06:44:53.602Z,1003.26
2019-05-12T06:45:49.242Z,1003.25
2019-05-12T06:46:53.570Z,1003.28
2019-05-12T06:47:51.706Z,1003.32
2019-05-12T06:48:49.925Z,1003.39
2019-05-12T06:49:56.427Z,1003.32
2019-05-12T06:50:50.372Z,1003.29
2019-05-12T06:51:53.684Z,1003.40
2019-05-12T06:52:57.730Z,1003.33
2019-05-12T06:53:53.317Z,1003.39
2019-05-12T06:54:56.559Z,1003.33
2019-05-12T06:55:53.867Z,1003.39
2019-05-12T06:56:57.873Z,1003.44
2019-05-12T06:57:53.886Z,1003.46
2019-05-12T06:58:53.462Z,1003.41
2019-05-12T06:59:53.078Z,1003.49
2019-05-12T07:00:54.057Z,1003.40
2019-05-12T07:01:58.351Z,1003.46
2019-05-12T07:02:55.150Z,1003.59
2019-05-12T07:03:53.490Z,1003.52
2019-05-12T07:04:58.987Z,1003.64
2019-05-12T07:05:53.800Z,1003.55
2019-05-12T07:06:56.280Z,1003.53
2019-05-12T07:07:54.238Z,1003.58
2019-05-12T07:09:03.423Z,1003.64
2019-05-12T07:10:02.255Z,1003.60
2019-05-12T07:11:01.855Z,1003.61
2019-05-12T07:12:02.960Z,1003.71
2019-05-12T07:13:01.669Z,1003.58
2019-05-12T07:14:04.481Z,1003.54
2019-05-12T07:14:58.610Z,1003.63
2019-05-12T07:15:56.042Z,1003.65
2019-05-12T07:17:01.764Z,1003.65
2019-05-12T07:17:56.490Z,1003.63
2019-05-12T07:18:56.715Z,1003.62
2019-05-12T07:19:58.312Z,1003.62
2019-05-12T07:20:57.164Z,1003.74
2019-05-12T07:22:00.080Z,1003.66
2019-05-12T07:22:57.615Z,1003.60
2019-05-12T07:24:00.512Z,1003.59
2019-05-12T07:24:58.064Z,1003.64
2019-05-12T07:25:58.292Z,1003.55
2019-05-12T07:27:04.364Z,1003.58
2019-05-12T07:28:01.490Z,1003.60
2019-05-12T07:28:58.950Z,1003.60
2019-05-12T07:29:59.175Z,1003.63
2019-05-12T07:30:59.402Z,1003.58
2019-05-12T07:31:59.626Z,1003.63
2019-05-12T07:33:01.251Z,1003.61
2019-05-12T07:34:00.076Z,1003.55
2019-05-12T07:35:00.302Z,1003.68
2019-05-12T07:36:01.975Z,1003.59
2019-05-12T07:37:00.752Z,1003.57
2019-05-12T07:38:00.977Z,1003.58
2019-05-12T07:39:04.092Z,1003.62
2019-05-12T07:40:01.427Z,1003.65
2019-05-12T07:41:06.835Z,1003.65
2019-05-12T07:42:03.662Z,1003.69
2019-05-12T07:43:03.950Z,1003.70
2019-05-12T07:44:03.619Z,1003.76
2019-05-12T07:45:03.972Z,1003.72
2019-05-12T07:46:06.882Z,1003.76
2019-05-12T07:47:03.582Z,1003.75
2019-05-12T07:48:07.718Z,1003.78
2019-05-12T07:49:03.884Z,1003.75
2019-05-12T07:50:04.515Z,1003.81
2019-05-12T07:51:04.235Z,1003.84
2019-05-12T07:52:04.133Z,1003.84
2019-05-12T07:53:04.605Z,1003.84
2019-05-12T07:54:04.565Z,1003.85
2019-05-12T07:55:04.789Z,1003.86
2019-05-12T07:56:05.028Z,1003.83
2019-05-12T07:57:11.947Z,1003.95
2019-05-12T07:58:13.823Z,1003.98
2019-05-12T07:59:05.692Z,1003.99
2019-05-12T08:00:05.964Z,1003.96
2019-05-12T08:01:07.995Z,1003.97
2019-05-12T08:02:06.371Z,1003.95
2019-05-12T08:03:16.045Z,1003.90
2019-05-12T08:04:06.821Z,1004.00
2019-05-12T08:05:11.160Z,1003.99
2019-05-12T08:06:07.271Z,1003.99
2019-05-12T08:07:07.497Z,1004.00
2019-05-12T08:08:10.858Z,1004.01
2019-05-12T08:09:07.954Z,1003.95
2019-05-12T08:10:17.714Z,1003.98
2019-05-12T08:11:08.390Z,1004.02
2019-05-12T08:12:09.604Z,1004.09
2019-05-12T08:13:08.843Z,1004.02
2019-05-12T08:14:13.159Z,1004.00
2019-05-12T08:15:09.752Z,1003.94
2019-05-12T08:16:09.522Z,1004.00
2019-05-12T08:17:11.909Z,1004.01
2019-05-12T08:18:09.973Z,1004.13
2019-05-12T08:19:17.148Z,1004.07
2019-05-12T08:20:10.424Z,1004.15
2019-05-12T08:21:10.648Z,1004.22
2019-05-12T08:22:10.874Z,1004.17
2019-05-12T08:23:11.101Z,1004.13
2019-05-12T08:24:11.328Z,1004.14
2019-05-12T08:25:13.512Z,1004.16
2019-05-12T08:26:17.733Z,1004.16
2019-05-12T08:27:14.312Z,1004.15
2019-05-12T08:28:16.283Z,1004.13
2019-05-12T08:29:16.999Z,1004.15
2019-05-12T08:30:13.872Z,1004.12
2019-05-12T08:31:14.042Z,1004.15
2019-05-12T08:32:15.982Z,1004.22
2019-05-12T08:33:14.552Z,1004.12
2019-05-12T08:34:13.750Z,1004.12
2019-05-12T08:35:14.140Z,1004.10
2019-05-12T08:36:16.279Z,1004.15
2019-05-12T08:37:14.269Z,1004.15
2019-05-12T08:38:14.686Z,1004.19
2019-05-12T08:39:21.338Z,1004.20
2019-05-12T08:40:15.551Z,1004.18
2019-05-12T08:41:15.173Z,1004.20
2019-05-12T08:42:15.402Z,1004.22
2019-05-12T08:43:15.627Z,1004.23
2019-05-12T08:44:17.600Z,1004.28
2019-05-12T08:45:27.415Z,1004.32
2019-05-12T08:46:16.302Z,1004.33
2019-05-12T08:47:16.528Z,1004.35
2019-05-12T08:48:21.426Z,1004.37
2019-05-12T08:49:16.980Z,1004.36
2019-05-12T08:50:17.205Z,1004.38
2019-05-12T08:51:20.090Z,1004.42
2019-05-12T08:52:17.659Z,1004.43
2019-05-12T08:53:20.834Z,1004.45
2019-05-12T08:54:18.111Z,1004.41
2019-05-12T08:55:22.764Z,1004.36
2019-05-12T08:56:19.843Z,1004.41
2019-05-12T08:57:18.784Z,1004.41
2019-05-12T08:58:30.338Z,1004.48
2019-05-12T08:59:24.203Z,1004.44
2019-05-12T09:00:19.469Z,1004.39
2019-05-12T09:01:20.242Z,1004.43
2019-05-12T09:02:19.886Z,1004.49
2019-05-12T09:03:25.309Z,1004.50
2019-05-12T09:04:20.341Z,1004.51
2019-05-12T09:05:25.840Z,1004.55
2019-05-12T09:06:20.791Z,1004.60
2019-05-12T09:07:21.041Z,1004.66
2019-05-12T09:08:21.253Z,1004.60
2019-05-12T09:09:23.272Z,1004.59
2019-05-12T09:10:23.512Z,1004.57
2019-05-12T09:11:24.158Z,1004.63
2019-05-12T09:12:23.286Z,1004.69
2019-05-12T09:13:23.435Z,1004.61
2019-05-12T09:14:23.918Z,1004.65
2019-05-12T09:15:23.982Z,1004.61
2019-05-12T09:16:24.449Z,1004.67
2019-05-12T09:17:23.351Z,1004.55
2019-05-12T09:18:28.510Z,1004.59
2019-05-12T09:19:26.686Z,1004.68
2019-05-12T09:20:24.313Z,1004.58
2019-05-12T09:21:31.934Z,1004.55
2019-05-12T09:22:24.416Z,1004.54
2019-05-12T09:23:24.653Z,1004.57
2019-05-12T09:24:27.322Z,1004.61
2019-05-12T09:25:25.100Z,1004.53
2019-05-12T09:26:28.439Z,1004.61
2019-05-12T09:27:25.565Z,1004.60
2019-05-12T09:28:25.790Z,1004.61
2019-05-12T09:29:26.020Z,1004.58
2019-05-12T09:30:26.248Z,1004.63
2019-05-12T09:31:29.456Z,1004.56
2019-05-12T09:32:26.703Z,1004.56
2019-05-12T09:33:31.696Z,1004.62
2019-05-12T09:34:27.151Z,1004.60
2019-05-12T09:35:28.686Z,1004.85
2019-05-12T09:36:27.607Z,1004.86
2019-05-12T09:37:30.967Z,1004.68
2019-05-12T09:38:28.055Z,1004.62
2019-05-12T09:39:28.294Z,1004.65
2019-05-12T09:40:28.518Z,1004.59
2019-05-12T09:41:28.747Z,1004.60
2019-05-12T09:42:30.171Z,1004.70
2019-05-12T09:43:29.184Z,1004.63
2019-05-12T09:44:30.571Z,1004.80
2019-05-12T09:45:29.653Z,1004.67
2019-05-12T09:46:34.365Z,1004.63
2019-05-12T09:47:30.215Z,1004.65
2019-05-12T09:48:30.333Z,1004.67
2019-05-12T09:49:31.498Z,1004.59
2019-05-12T09:50:30.789Z,1004.63
2019-05-12T09:51:32.831Z,1004.63
2019-05-12T09:52:32.962Z,1004.62
2019-05-12T09:53:33.724Z,1004.60
2019-05-12T09:54:35.371Z,1004.63
2019-05-12T09:55:34.163Z,1004.62
2019-05-12T09:56:34.192Z,1004.64
2019-05-12T09:57:40.816Z,1004.62
2019-05-12T09:58:33.728Z,1004.65
2019-05-12T09:59:33.644Z,1004.65
2019-05-12T10:00:35.917Z,1004.66
2019-05-12T10:01:35.285Z,1004.65
2019-05-12T10:02:33.497Z,1004.74
2019-05-12T10:03:38.773Z,1004.63
2019-05-12T10:04:33.975Z,1004.60
2019-05-12T10:05:41.025Z,1004.60
2019-05-12T10:06:34.410Z,1004.61
2019-05-12T10:07:34.635Z,1004.67
2019-05-12T10:08:35.694Z,1004.66
2019-05-12T10:09:35.090Z,1004.66
2019-05-12T10:10:40.030Z,1004.66
2019-05-12T10:11:35.541Z,1004.62
2019-05-12T10:12:45.059Z,1004.64
2019-05-12T10:13:35.994Z,1004.67
2019-05-12T10:14:40.619Z,1004.60
2019-05-12T10:15:36.447Z,1004.57
2019-05-12T10:16:39.549Z,1004.55
2019-05-12T10:17:36.905Z,1004.61
2019-05-12T10:18:37.130Z,1004.60
2019-05-12T10:19:37.358Z,1004.59
2019-05-12T10:20:39.806Z,1004.69
2019-05-12T10:21:37.802Z,1004.68
2019-05-12T10:22:40.169Z,1004.69
2019-05-12T10:23:38.260Z,1004.78
2019-05-12T10:24:54.648Z,1004.79
2019-05-12T10:25:38.714Z,1004.68
2019-05-12T10:26:41.230Z,1004.65
2019-05-12T10:27:39.187Z,1004.64
2019-05-12T10:28:43.719Z,1004.69
2019-05-12T10:29:39.623Z,1004.67
2019-05-12T10:30:39.848Z,1004.70
2019-05-12T10:31:40.083Z,1004.79
2019-05-12T10:32:40.328Z,1004.77
2019-05-12T10:33:40.541Z,1004.84
2019-05-12T10:34:40.766Z,1004.90
2019-05-12T10:35:41.008Z,1004.77
2019-05-12T10:36:44.991Z,1004.77
2019-05-12T10:37:43.377Z,1004.77
2019-05-12T10:38:43.430Z,1004.78
2019-05-12T10:39:41.902Z,1004.81
2019-05-12T10:40:44.221Z,1004.79
2019-05-12T10:41:43.671Z,1004.90
2019-05-12T10:42:46.228Z,1004.74
2019-05-12T10:43:43.360Z,1004.80
2019-05-12T10:44:43.734Z,1004.89
2019-05-12T10:45:44.204Z,1004.80
2019-05-12T10:46:43.486Z,1004.69
2019-05-12T10:47:43.712Z,1004.77
2019-05-12T10:48:44.353Z,1004.76
2019-05-12T10:49:44.222Z,1004.75
2019-05-12T10:50:44.448Z,1004.76
2019-05-12T10:51:47.564Z,1004.74
2019-05-12T10:52:44.861Z,1004.81
2019-05-12T10:53:48.281Z,1004.87
2019-05-12T10:54:45.304Z,1004.86
2019-05-12T10:55:45.533Z,1004.86
2019-05-12T10:56:45.758Z,1004.87
2019-05-12T10:57:47.212Z,1004.99
2019-05-12T10:58:46.226Z,1004.97
2019-05-12T10:59:48.686Z,1004.91
2019-05-12T11:00:46.669Z,1004.92
2019-05-12T11:01:49.087Z,1004.99
2019-05-12T11:02:47.122Z,1004.90
2019-05-12T11:03:50.815Z,1004.93
2019-05-12T11:04:47.578Z,1004.92
2019-05-12T11:05:47.810Z,1004.96
2019-05-12T11:06:48.579Z,1004.85
2019-05-12T11:07:48.257Z,1004.85
2019-05-12T11:08:51.212Z,1004.81
2019-05-12T11:09:48.747Z,1004.75
2019-05-12T11:10:50.346Z,1004.73
2019-05-12T11:11:49.179Z,1004.75
2019-05-12T11:12:49.383Z,1004.80
2019-05-12T11:13:50.099Z,1004.88
2019-05-12T11:14:49.839Z,1004.89
2019-05-12T11:15:50.074Z,1004.96
2019-05-12T11:16:50.291Z,1004.95
2019-05-12T11:17:50.518Z,1005.02
2019-05-12T11:18:50.746Z,1005.02
2019-05-12T11:19:53.661Z,1004.98
2019-05-12T11:20:51.198Z,1004.99
2019-05-12T11:21:53.577Z,1004.99
2019-05-12T11:22:54.116Z,1005.00
2019-05-12T11:23:54.162Z,1005.02
2019-05-12T11:24:53.487Z,1005.14
2019-05-12T11:25:53.365Z,1005.00
2019-05-12T11:26:53.608Z,1005.12
2019-05-12T11:27:54.877Z,1004.97
2019-05-12T11:28:53.309Z,1005.01
2019-05-12T11:29:53.500Z,1005.02
2019-05-12T11:30:53.467Z,1005.01
2019-05-12T11:31:54.005Z,1004.99
2019-05-12T11:32:54.254Z,1005.06
2019-05-12T11:33:54.286Z,1005.05
2019-05-12T11:34:54.354Z,1004.98
2019-05-12T11:35:54.580Z,1005.11
2019-05-12T11:36:54.809Z,1004.99
2019-05-12T11:37:55.035Z,1004.97
2019-05-12T11:38:55.266Z,1004.90
2019-05-12T11:39:55.485Z,1005.02
2019-05-12T11:40:55.711Z,1005.04
2019-05-12T11:41:55.945Z,1004.95
2019-05-12T11:43:00.912Z,1005.02
2019-05-12T11:43:56.401Z,1004.99
2019-05-12T11:44:56.634Z,1005.08
2019-05-12T11:45:56.872Z,1005.04
2019-05-12T11:46:57.103Z,1005.08
2019-05-12T11:48:05.033Z,1005.10
2019-05-12T11:48:57.552Z,1005.13
2019-05-12T11:49:58.476Z,1005.17
2019-05-12T11:50:58.006Z,1005.16
2019-05-12T11:52:01.007Z,1005.11
2019-05-12T11:52:58.461Z,1005.27
2019-05-12T11:54:03.510Z,1005.16
2019-05-12T11:54:58.914Z,1005.20
2019-05-12T11:56:02.201Z,1005.18
2019-05-12T11:56:59.368Z,1005.31
2019-05-12T11:58:00.488Z,1005.27
2019-05-12T11:58:59.822Z,1005.27
2019-05-12T12:00:02.258Z,1005.19
2019-05-12T12:01:04.704Z,1005.41
2019-05-12T12:02:00.500Z,1005.28
2019-05-12T12:03:03.740Z,1005.29
2019-05-12T12:04:00.960Z,1005.31
2019-05-12T12:05:01.190Z,1005.26
2019-05-12T12:06:01.413Z,1005.30
2019-05-12T12:07:01.658Z,1005.33
2019-05-12T12:08:04.056Z,1005.34
2019-05-12T12:09:03.930Z,1005.30
2019-05-12T12:10:03.730Z,1005.29
2019-05-12T12:11:03.955Z,1005.44
2019-05-12T12:12:07.108Z,1005.34
2019-05-12T12:13:03.775Z,1005.41
2019-05-12T12:14:08.427Z,1005.34
2019-05-12T12:15:04.707Z,1005.41